METAR Data
IDs: Format: Raw Decoded Include TAF

Data at: 1441 UTC 21 Feb 2019

EBBR 211420Z 24009KT 9999 FEW028 13/06 Q1028 NOSIG